Unity, New Hampshire
Current Conditions -  °F | °C
As of 7:54 PM on Tuesday 21 Oct 2014 (Local Time) from KVSF Reporting Station
Overcast Overcast  
Wind Chill: 49°   Ceiling: 1200
Heat Index: 49°   Visibility: 10mi
Dew Point: 46°   Wind: 0mph
Humidity: 90%   Direction: NA
Pressure: 30.01"   Gusts: NA
Location:  43.3506°N, 72.3252°W
Report Text: KVSF 212354Z AUTO 00000KT 10SM OVC012 09/08 A3001 RMK AO2 SLP165 60000 T00940078 10100 20094 53010
Loading
Personal Weather Stations






























Interactive Weather Map
Tropical Storm Tracking
New forecast layout! Learn more

10-Day Weather Forecast

Advertisements
Track Severe Weather on mobile